Terminal Aerodrome Forecast
Issued by NWS Chicago, IL

Home | Current Version | Previous Version | Graphics & Text | Print | Product List | Glossary On
Versions: 1 2 3 4 5 6 7 8 9 10 11 12 13 14 15 16 17 18 19 20 21 22 23 24 25 26 27 28 29 30 31 32
000
FTUS43 KLOT 141720
TAFRFD
TAF
KRFD 141720Z 1418/1518 12008KT 2SM SHRA BR VCTS BKN007 OVC018CB
     FM142100 16010KT 4SM -SHRA VCTS SCT009 OVC015CB
      TEMPO 1422/1501 1SM TSRA BKN009 OVC012CB
     FM150300 22014KT 4SM -SHRA VCTS BKN012 OVC018CB
      TEMPO 1503/1506 2SM TSRA OVC015CB
     FM150900 26022G37KT P6SM VCSH BKN009 OVC012
     FM151500 31020G34KT P6SM BKN012 OVC018=

USA.gov is the U.S. government's official web portal to all federal, state and local government web resources and services.